Date,TemperatureHighF,TemperatureAvgF,TemperatureLowF,DewpointHighF,DewpointAvgF,DewpointLowF,HumidityHigh,HumidityAvg,HumidityLow,PressureMaxIn,PressureMinIn,WindSpeedMaxMPH,WindSpeedAvgMPH,GustSpeedMaxMPH,PrecipitationSumIn
2014-1-1,99.3,79.0,63.9,66.1,62.9,55.5,93,63,27,30.12,29.92,8,4,18,0.00
2014-1-2,100.9,86.5,72.3,69.6,59.5,46.6,79,45,18,29.89,29.74,16,6,26,0.22
2014-1-3,93.7,79.5,70.0,72.0,68.2,62.8,91,71,40,29.89,29.53,13,7,21,0.00
2014-1-4,97.0,79.8,69.8,72.0,66.5,62.3,94,68,36,29.92,29.62,12,5,21,0.00
2014-1-5,102.4,82.4,68.4,67.2,63.7,55.4,89,59,24,29.98,29.71,8,4,14,0.00
2014-1-6,98.6,79.2,65.8,66.6,45.8,-6.9,93,51,2,30.12,29.80,15,6,26,0.00
2014-1-7,77.7,70.3,63.3,62.8,58.0,53.6,92,67,49,30.24,30.12,12,7,24,0.00
2014-1-8,79.9,70.5,63.7,60.0,55.4,51.1,87,61,43,30.30,30.21,11,7,20,0.00
2014-1-9,87.3,71.5,63.0,60.3,55.0,49.7,75,58,35,30.33,30.24,11,5,23,0.00
2014-1-10,97.5,78.1,64.2,62.9,60.0,54.7,85,58,28,30.30,30.12,11,5,19,0.00
2014-1-11,102.7,83.1,68.7,65.1,60.3,55.3,80,50,25,30.24,30.03,9,3,15,0.00
2014-1-12,98.1,80.0,67.1,66.2,60.5,52.2,85,56,27,30.24,30.09,13,5,24,0.00
2014-1-13,91.8,76.8,67.5,67.2,62.0,57.2,91,64,35,30.30,30.18,12,6,20,0.00
2014-1-14,100.0,78.1,61.7,65.4,61.5,59.0,93,62,27,30.33,30.15,11,4,23,0.00
2014-1-15,105.8,82.4,63.9,65.9,61.8,48.2,91,57,16,30.30,30.09,12,4,20,0.00
2014-1-16,105.8,83.6,66.9,67.4,62.4,46.5,90,55,15,30.27,30.03,12,4,22,0.00
2014-1-17,103.8,81.1,66.2,67.3,62.9,56.6,89,60,23,30.18,29.98,13,5,23,0.00
2014-1-18,109.8,83.8,63.9,64.5,50.0,-0.7,91,48,2,30.09,29.86,10,4,22,0.00
2014-1-19,102.9,80.3,66.6,67.6,62.4,58.0,82,58,26,29.95,29.80,15,5,25,0.00
2014-1-20,97.3,79.9,69.4,69.6,66.4,62.8,93,67,36,29.98,29.80,14,6,27,0.00
2014-1-21,93.7,79.2,72.7,72.0,68.8,65.6,90,73,42,30.01,29.80,12,7,20,0.00
2014-1-22,77.9,73.0,68.7,69.3,64.6,58.0,86,75,60,30.30,30.01,14,7,23,0.00
2014-1-23,81.9,71.8,66.4,67.1,64.6,62.1,91,79,58,30.30,30.15,13,7,24,0.00
2014-1-24,93.4,76.7,65.8,68.2,65.1,56.8,95,71,33,30.18,29.80,16,4,28,0.21
2014-1-25,90.5,74.5,67.8,68.9,59.5,50.4,95,63,32,30.27,29.86,15,7,26,0.00
2014-1-26,81.0,70.3,63.7,60.0,54.4,46.3,83,59,39,30.36,30.24,12,6,26,0.00
2014-1-27,94.5,73.7,58.6,59.4,55.6,51.7,86,57,28,30.36,30.21,15,5,27,0.00
2014-1-28,98.4,76.4,59.4,60.4,57.2,54.1,90,56,27,30.27,30.09,12,4,23,0.00
2014-1-29,103.6,80.2,62.1,62.7,54.2,-5.0,89,51,2,30.18,30.01,12,4,19,0.00
2014-1-30,97.3,77.3,60.8,60.9,57.1,52.4,88,54,26,30.24,30.03,12,5,24,0.00
2014-1-31,102.9,78.6,59.0,61.0,55.6,47.0,88,51,17,30.15,29.92,10,4,17,0.00
2014-2-1,100.6,80.1,64.4,65.0,60.3,55.7,84,54,28,30.12,29.95,11,4,18,0.00
2014-2-2,96.8,78.2,64.8,65.2,62.7,59.4,90,64,31,30.12,29.98,13,5,26,0.00
2014-2-3,100.6,69.0,63.9,63.9,60.7,47.1,90,77,17,30.12,29.92,10,3,24,0.00
2014-2-4,92.1,74.1,64.2,64.8,61.0,55.7,86,66,33,30.30,29.95,20,8,34,0.00
2014-2-5,82.2,70.4,65.3,59.3,53.3,48.6,80,57,33,30.30,30.21,14,7,23,0.00
2014-2-6,86.0,71.1,63.0,58.1,54.6,50.3,82,59,35,30.27,30.09,10,4,20,0.00
2014-2-7,98.2,73.2,56.7,59.9,56.3,52.7,90,60,26,30.18,30.03,10,3,15,0.00
2014-2-8,99.3,76.8,58.3,62.0,57.1,46.3,90,57,19,30.18,30.07,9,4,17,0.00
2014-2-9,106.7,80.1,62.1,66.4,57.0,-4.3,91,58,2,30.24,30.03,9,3,15,0.00
2014-2-10,98.1,78.3,64.6,67.6,63.2,57.8,86,63,34,30.24,30.07,13,5,20,0.00
2014-2-11,100.4,80.2,71.1,68.4,66.5,63.5,88,67,32,30.18,30.01,12,6,20,0.00
2014-2-12,98.2,79.1,67.6,69.1,65.9,62.0,93,68,33,30.15,30.03,13,6,23,0.00
2014-2-13,98.2,79.0,67.5,68.6,64.7,59.9,91,65,34,30.15,29.92,10,5,24,0.00
2014-2-14,77.0,71.2,67.3,70.1,67.6,65.1,94,89,74,30.01,29.80,4,1,6,0.16
2014-2-15,84.4,74.5,69.4,73.2,70.1,67.9,96,87,64,29.86,29.62,6,3,10,0.13
2014-2-16,82.6,74.3,68.7,75.1,70.3,67.2,97,88,61,29.95,29.65,10,3,17,1.41
2014-2-17,86.9,72.9,66.2,67.4,62.2,55.9,97,73,39,30.07,29.92,9,5,17,0.08
2014-2-18,87.8,73.4,66.6,70.7,66.0,61.7,94,79,53,30.07,29.86,7,3,12,0.00
2014-2-19,91.0,75.9,70.0,75.9,71.5,68.2,96,87,54,29.89,29.74,10,2,15,1.33
2014-2-20,93.7,78.7,68.7,71.3,61.4,47.5,97,62,28,30.03,29.74,12,6,22,0.00
2014-2-21,90.5,73.8,66.4,63.3,57.6,48.5,88,60,32,30.21,30.03,9,3,17,0.00
2014-2-22,89.2,73.1,65.1,63.5,59.5,55.6,88,65,36,30.30,30.15,10,5,20,0.00
2014-2-23,81.0,70.5,63.1,61.9,58.9,54.6,90,69,43,30.33,30.24,9,4,17,0.00
2014-2-24,92.5,74.9,66.0,66.3,62.8,57.9,92,70,37,30.27,30.12,11,4,19,0.00
2014-2-25,96.1,76.0,63.1,66.5,62.0,53.4,94,67,30,30.21,29.98,7,2,11,0.00
2014-2-26,97.5,79.7,63.7,65.6,60.0,54.3,90,57,26,30.09,29.95,12,3,19,0.00
2014-2-27,89.8,76.4,68.0,68.6,65.7,63.1,89,71,46,30.27,30.03,13,5,22,0.00
2014-2-28,70.2,68.4,66.2,69.0,65.8,63.5,97,92,83,30.33,30.21,9,4,15,1.70
2014-3-1,74.5,67.3,63.9,67.8,63.6,57.8,96,88,60,30.27,30.15,7,3,13,0.25
2014-3-2,75.9,68.3,64.0,68.0,64.5,62.7,96,88,70,30.30,30.15,6,2,10,0.04
2014-3-3,84.9,71.7,65.8,68.4,65.3,60.7,96,82,50,30.39,30.27,13,4,14,0.00
2014-3-4,89.1,73.8,65.8,66.7,62.5,56.0,95,72,38,30.42,30.27,10,4,17,0.00
2014-3-5,97.2,73.0,61.2,67.8,62.6,55.7,97,76,30,30.27,30.03,8,3,15,0.33
2014-3-6,89.2,73.0,64.8,69.7,66.1,62.9,96,81,46,30.27,30.09,9,3,18,0.00
2014-3-7,93.9,75.7,66.7,69.0,65.9,60.1,96,75,39,30.27,30.15,8,2,12,0.00
2014-3-8,89.4,73.9,64.4,66.3,61.6,54.0,94,69,34,30.33,30.21,11,4,18,0.00
2014-3-9,90.3,73.4,61.5,64.2,59.9,54.6,94,67,32,30.33,30.18,10,4,17,0.00
2014-3-10,94.3,74.3,61.9,65.4,62.0,57.5,94,70,32,30.36,30.21,9,3,17,0.00
2014-3-11,90.0,73.4,61.7,65.0,60.7,54.5,95,69,33,30.36,30.21,10,4,18,0.00
2014-3-12,96.4,74.7,59.4,64.0,60.2,56.7,95,66,31,30.27,30.09,6,2,11,0.00
2014-3-13,88.5,73.6,66.2,68.1,64.6,62.0,93,76,42,30.24,30.15,11,3,20,0.00
2014-3-14,95.0,72.9,61.2,66.4,62.4,56.6,95,74,33,30.18,30.03,10,2,20,0.00
2014-3-15,93.4,74.2,60.1,64.9,60.4,56.1,95,67,35,30.12,29.89,10,3,15,0.00
2014-3-16,90.1,73.2,63.9,67.2,60.3,52.9,92,67,34,30.03,29.80,27,6,41,0.00
2014-3-17,85.8,67.9,53.4,54.2,47.7,43.5,83,52,27,30.21,30.07,9,3,15,0.00
2014-3-18,94.6,71.3,53.8,56.9,51.7,46.4,87,56,23,30.33,30.18,6,2,10,0.00
2014-3-19,90.7,72.4,58.3,67.6,59.8,54.7,90,67,36,30.42,30.27,11,4,20,0.00
2014-3-20,86.9,72.0,64.9,67.2,64.1,59.6,97,79,42,30.42,30.33,11,4,17,0.00
2014-3-21,86.0,73.0,66.0,68.0,63.8,58.6,95,76,43,30.33,30.15,10,2,15,0.00
2014-3-22,97.0,74.5,62.2,67.1,60.3,51.5,97,68,28,30.21,30.07,5,2,9,0.00
2014-3-23,97.0,76.3,65.5,67.3,61.6,54.4,90,64,30,30.21,30.01,10,2,14,0.00
2014-3-24,78.1,69.2,65.1,67.1,61.8,58.2,95,78,58,30.18,30.03,10,2,15,0.21
2014-3-25,81.7,68.2,59.0,65.2,61.8,57.3,96,81,55,30.30,30.15,6,1,10,0.00
2014-3-26,78.8,70.8,66.9,70.5,67.7,65.2,96,90,72,30.30,30.21,7,2,13,0.17
2014-3-27,70.5,68.0,64.2,69.0,66.7,63.2,97,96,94,30.30,30.18,5,2,12,1.08
2014-3-28,87.1,69.3,64.0,69.0,65.2,63.2,97,88,52,30.18,30.01,7,2,12,1.28
2014-3-29,86.5,72.2,64.4,66.1,63.4,60.2,95,76,47,30.18,30.03,11,5,15,0.00
2014-3-30,90.1,72.7,63.7,66.8,63.6,59.6,96,76,40,30.27,30.15,7,3,15,0.00
2014-3-31,90.1,72.8,63.5,66.0,63.2,57.5,94,75,39,30.33,30.18,6,2,11,0.00
2014-4-1,88.0,70.4,60.1,66.8,62.4,58.4,96,79,42,30.24,30.15,5,1,8,0.00
2014-4-2,91.8,72.8,62.2,68.5,65.0,60.5,96,79,42,30.18,30.03,4,1,7,0.00
2014-4-3,95.4,75.2,63.9,72.0,66.6,62.4,96,78,38,30.21,30.03,5,2,10,0.00
2014-4-4,75.2,70.7,67.6,71.1,68.3,65.6,96,92,85,30.18,30.09,6,2,13,0.75
2014-4-5,86.5,71.7,66.6,72.4,67.9,65.7,97,89,57,30.24,30.12,6,2,11,0.12
2014-4-6,77.2,68.8,64.0,66.4,63.1,60.3,96,83,58,30.33,30.18,12,4,21,0.25
2014-4-7,77.4,67.0,59.2,62.9,58.9,52.3,96,77,45,30.39,30.27,12,2,18,0.04
2014-4-8,82.8,68.2,58.5,62.2,58.2,52.9,96,73,41,30.33,30.21,7,2,13,0.00
2014-4-9,89.1,68.3,57.2,63.2,59.1,55.5,96,76,39,30.24,30.15,7,2,12,0.00
2014-4-10,83.7,68.6,59.5,66.3,61.1,57.7,95,78,50,30.18,29.98,3,1,6,0.00
2014-4-11,86.2,73.9,66.0,67.4,63.7,58.6,97,73,42,29.95,29.77,12,5,19,0.29
2014-4-12,81.3,70.3,64.6,65.2,58.2,54.2,86,67,45,30.12,29.86,8,4,19,0.05
2014-4-13,78.8,66.4,58.1,61.0,56.2,52.3,88,71,47,30.21,30.03,8,3,15,0.00
2014-4-14,78.6,66.1,59.2,60.1,54.8,50.3,92,69,42,30.27,30.15,10,3,18,0.00
2014-4-15,79.2,65.1,58.1,59.8,57.4,52.2,94,78,48,30.24,30.15,5,2,12,0.00
2014-4-16,79.9,66.8,59.9,59.0,55.6,52.1,93,70,43,30.21,30.12,8,3,13,0.00
2014-4-17,85.1,65.6,54.9,58.3,53.8,44.5,96,70,32,30.24,30.12,6,2,12,0.00
2014-4-18,81.5,66.0,53.8,56.2,51.6,45.4,95,65,33,30.18,30.01,11,5,18,0.00
2014-4-19,82.6,67.1,53.8,55.6,49.8,43.2,85,57,31,30.15,30.03,11,4,19,0.00
2014-4-20,82.9,65.2,53.2,55.1,49.2,40.0,90,61,31,30.18,30.03,10,3,15,0.00
2014-4-21,82.8,61.6,47.1,49.0,44.5,39.1,85,57,31,30.24,30.15,7,2,12,0.00
2014-4-22,85.6,62.9,46.6,51.6,46.9,43.5,91,61,30,30.24,30.09,10,3,18,0.00
2014-4-23,89.2,66.3,51.1,54.8,49.5,44.4,87,60,25,30.15,30.03,7,2,13,0.00
2014-4-24,89.8,68.3,50.7,55.5,51.6,48.1,92,61,28,30.12,30.01,14,3,20,0.00
2014-4-25,73.8,63.6,57.6,64.0,56.9,51.8,97,80,54,30.30,30.15,16,2,29,1.37
2014-4-26,76.3,64.0,52.3,61.8,55.6,51.2,97,77,46,30.18,29.98,9,3,17,0.00
2014-4-27,74.3,63.4,56.7,63.8,59.7,55.2,97,88,65,30.36,30.15,12,3,21,0.12
2014-4-28,80.2,65.9,59.2,62.7,58.9,54.9,97,81,45,30.39,30.27,7,3,14,0.00
2014-4-29,84.4,64.3,51.1,61.9,56.1,49.7,97,78,41,30.27,30.03,8,2,13,0.00
2014-4-30,75.0,65.9,58.5,62.4,58.3,49.4,93,78,57,30.12,29.95,15,5,27,0.00
2014-5-1,80.6,61.5,50.4,54.1,49.8,45.8,89,68,38,30.15,30.01,5,2,10,0.00
2014-5-2,77.4,63.5,54.5,55.6,49.3,42.0,94,64,35,30.01,29.68,9,4,13,0.00
2014-5-3,62.6,56.4,51.3,46.7,41.1,37.2,80,57,43,29.71,29.56,21,12,34,0.00
2014-5-4,69.1,58.6,52.9,45.4,41.3,34.3,73,54,37,30.03,29.68,21,15,32,0.00
2014-5-5,69.1,56.5,48.6,41.6,38.6,35.8,68,52,35,30.24,30.03,13,9,22,0.00
2014-5-6,78.1,57.2,43.5,48.2,41.6,36.6,84,58,34,30.27,30.15,10,4,15,0.00
2014-5-7,73.8,60.5,50.4,49.2,46.1,43.2,83,61,41,30.39,30.21,8,2,13,0.00
2014-5-8,72.0,59.4,49.5,53.3,47.3,41.3,87,66,47,30.39,30.27,8,2,13,0.00
2014-5-9,80.2,62.1,53.1,57.2,52.9,49.3,92,74,41,30.39,30.27,5,2,9,0.00
2014-5-10,72.1,58.1,46.8,57.5,50.7,45.0,96,78,46,30.36,30.21,6,1,9,0.00
2014-5-11,81.5,62.1,55.8,60.0,55.9,51.3,97,82,42,30.39,30.21,12,4,21,0.13
2014-5-12,79.9,61.9,52.3,59.2,53.6,50.2,97,77,42,30.51,30.39,7,2,12,0.00
2014-5-13,81.1,63.6,55.2,61.4,56.0,51.3,95,79,42,30.51,30.39,4,1,6,0.04
2014-5-14,79.0,59.8,48.9,60.0,52.7,47.6,97,80,44,30.48,30.36,5,1,8,0.00
2014-5-15,81.3,58.6,45.1,57.8,48.8,43.5,96,75,34,30.48,30.36,4,1,6,0.00
2014-5-16,84.7,58.5,43.7,55.4,46.3,41.8,97,70,29,30.51,30.39,6,1,8,0.00
2014-5-17,81.0,58.8,44.8,52.4,46.1,42.3,93,68,32,30.54,30.39,8,2,12,0.00
2014-5-18,77.5,59.2,48.2,54.4,48.5,45.1,92,71,39,30.48,30.33,6,1,9,0.00
2014-5-19,81.0,64.1,53.4,55.0,51.0,46.8,92,67,33,30.45,30.30,9,3,16,0.00
2014-5-20,75.6,62.4,49.6,53.6,49.8,47.7,94,67,41,30.36,30.21,12,4,19,0.00
2014-5-21,84.7,64.6,52.0,55.9,50.8,46.1,90,65,33,30.39,30.27,5,1,8,0.00
2014-5-22,82.8,60.8,47.8,53.6,49.0,45.6,94,70,31,30.36,30.18,8,2,10,0.00
2014-5-23,80.6,55.2,52.7,52.7,48.7,48.0,84,80,48,30.24,30.09,8,1,13,0.00
2014-5-24,81.5,67.3,59.2,57.0,52.3,46.4,87,62,33,30.15,30.03,13,6,18,0.00
2014-5-25,83.8,67.1,57.4,60.9,53.8,48.5,91,66,33,30.30,30.09,13,3,17,0.00
2014-5-26,87.1,63.1,49.5,58.4,53.2,47.5,95,74,34,30.36,30.21,4,1,5,0.00
2014-5-27,80.1,62.7,52.2,59.4,53.0,47.0,95,74,39,30.27,29.98,13,2,17,0.00
2014-5-28,79.2,66.7,56.7,56.5,49.2,41.8,83,56,31,30.21,29.98,17,7,26,0.00
2014-5-29,79.3,60.1,46.9,58.2,47.9,42.3,94,67,35,30.39,30.21,6,2,8,0.00
2014-5-30,67.3,59.2,57.4,62.6,57.6,55.7,97,94,78,30.39,30.33,4,1,6,0.33
2014-5-31,69.3,60.3,52.9,62.5,56.1,51.8,98,87,67,30.39,30.24,8,2,16,0.00
2014-6-1,68.7,59.4,53.2,60.2,56.3,52.1,97,90,66,30.24,30.12,8,1,10,0.12
2014-6-2,72.9,60.5,52.9,59.2,52.9,44.8,98,79,42,30.18,30.09,10,4,17,0.09
2014-6-3,67.8,57.9,50.4,51.5,46.2,41.1,92,68,43,30.24,30.15,14,9,23,0.00
2014-6-4,77.4,57.3,44.8,50.1,45.2,39.4,86,66,38,30.36,30.24,9,3,13,0.00
2014-6-5,71.8,60.2,54.5,60.6,55.7,50.9,97,86,64,30.36,30.27,5,2,8,0.00
2014-6-6,66.9,61.1,58.6,58.1,54.9,47.3,94,81,62,30.42,30.30,9,4,24,0.00
2014-6-7,74.3,59.3,51.6,51.0,46.3,42.8,86,63,43,30.42,30.33,6,2,12,0.00
2014-6-8,74.5,56.9,46.2,50.8,46.9,42.0,97,72,40,30.45,30.33,6,2,12,0.00
2014-6-9,73.6,54.2,41.9,53.0,46.3,40.0,97,78,38,30.45,30.36,9,2,18,0.00
2014-6-10,68.9,57.1,49.8,58.4,52.8,48.4,96,86,61,30.48,30.36,8,2,13,0.00
2014-6-11,76.1,56.8,46.8,54.3,49.2,44.9,98,79,41,30.39,30.27,5,1,8,0.00
2014-6-12,76.1,56.5,47.1,51.7,47.1,42.3,97,75,35,30.30,30.15,6,1,8,0.00
2014-6-13,66.9,54.4,45.1,52.7,48.3,42.8,94,81,55,30.21,30.03,2,0,5,0.00
2014-6-14,70.7,60.4,55.4,59.8,54.3,47.9,97,82,51,30.03,29.92,10,4,19,0.16
2014-6-15,64.8,56.2,50.9,46.2,44.3,42.9,76,65,49,30.12,29.92,21,12,34,0.00
2014-6-16,67.5,56.7,49.3,45.6,42.8,39.7,86,62,39,30.30,30.15,15,10,24,0.00
2014-6-17,69.6,56.8,50.5,45.3,41.5,38.5,79,58,39,30.42,30.27,13,8,20,0.00
2014-6-18,74.1,57.1,48.0,50.2,45.8,42.4,86,68,42,30.51,30.39,7,2,10,0.00
2014-6-19,73.9,50.1,41.4,54.8,45.7,39.5,98,86,47,30.48,30.30,4,1,6,0.00
2014-6-20,73.8,55.5,46.4,57.8,50.6,45.0,96,86,44,30.30,30.09,14,2,21,0.38
2014-6-21,76.1,58.1,48.0,57.9,49.4,42.3,98,77,36,30.27,30.15,9,2,15,0.00
2014-6-22,75.6,56.2,46.0,52.9,47.5,44.4,96,76,36,30.30,30.18,5,1,11,0.00
2014-6-23,63.3,53.7,43.7,51.8,44.1,39.9,96,73,44,30.21,29.89,12,4,22,0.00
2014-6-24,62.8,57.5,52.7,38.9,35.5,33.1,54,44,35,30.01,29.86,28,16,45,0.00
2014-6-25,68.4,59.8,55.8,42.6,39.0,35.3,60,47,34,30.21,29.98,20,14,30,0.00
2014-6-26,69.4,59.8,53.4,41.7,38.8,36.7,54,46,36,30.30,30.18,18,11,30,0.00
2014-6-27,72.7,56.4,43.2,43.2,39.7,33.3,84,56,32,30.30,30.07,12,5,20,0.00
2014-6-28,69.3,49.2,34.3,53.2,38.3,29.6,87,68,44,30.03,29.68,18,5,31,0.08
2014-6-29,59.7,53.9,50.5,36.5,34.7,32.7,57,48,40,29.98,29.80,24,16,38,0.00
2014-6-30,65.3,53.3,47.7,38.9,35.1,27.1,71,52,33,30.27,30.01,16,10,26,0.00
2014-7-1,66.7,53.5,45.3,40.4,37.2,33.4,72,56,33,30.39,30.27,12,8,17,0.00
2014-7-2,72.9,52.8,40.5,42.8,38.3,34.3,84,60,34,30.45,30.33,10,4,17,0.00
2014-7-3,73.8,49.9,34.2,44.0,37.0,30.7,93,66,31,30.42,30.27,8,2,11,0.00
2014-7-4,73.2,53.1,37.2,41.6,35.8,28.7,95,57,29,30.30,30.12,13,5,22,0.00
2014-7-5,68.5,55.5,40.5,37.5,33.9,28.2,72,46,30,30.15,30.01,17,8,27,0.00
2014-7-6,62.6,54.4,49.5,38.9,36.2,33.0,66,51,38,30.12,29.98,16,10,28,0.00
2014-7-7,66.6,53.8,46.2,39.8,37.4,34.4,74,56,36,30.12,29.98,14,9,21,0.00
2014-7-8,69.4,52.7,43.0,39.0,35.2,29.5,75,54,26,30.12,29.98,14,6,20,0.00
2014-7-9,72.3,53.8,34.3,39.9,15.1,-14.7,88,42,3,29.95,29.68,20,6,31,0.00
2014-7-10,60.1,54.1,51.1,37.3,30.7,20.0,51,41,25,30.03,29.80,19,13,35,0.00
2014-7-11,64.6,54.9,48.9,38.4,34.5,32.1,57,46,37,30.21,30.03,18,11,32,0.00
2014-7-12,67.3,54.0,43.5,37.0,34.4,30.9,71,49,32,30.24,30.15,16,9,25,0.00
2014-7-13,68.0,50.8,39.6,39.3,33.5,28.3,70,53,35,30.51,30.27,7,2,19,0.00
2014-7-14,70.7,52.3,37.4,44.6,39.5,31.2,87,64,37,30.54,30.39,6,2,10,0.00
2014-7-15,61.3,52.6,46.2,51.3,47.3,42.4,92,83,67,30.42,30.15,2,0,5,0.00
2014-7-16,67.8,56.4,48.7,54.6,46.9,40.5,98,74,41,30.15,29.98,21,5,28,0.13
2014-7-17,67.5,56.7,51.4,44.9,41.3,37.1,73,58,35,30.09,29.95,23,10,30,0.00
2014-7-18,68.0,53.8,47.1,38.8,33.3,27.8,71,48,25,30.18,29.89,14,8,25,0.00
2014-7-19,66.2,51.8,43.5,38.3,34.1,31.9,67,52,34,30.30,30.15,11,6,20,0.00
2014-7-20,63.7,55.1,45.1,46.2,39.7,33.7,76,57,47,30.36,30.27,8,3,14,0.00
2014-7-21,72.7,55.4,46.0,49.1,45.5,41.8,95,72,38,30.39,30.27,5,2,12,0.00
2014-7-22,77.0,56.7,48.4,52.8,47.3,42.3,96,74,35,30.33,30.21,7,2,12,0.00
2014-7-23,71.4,52.5,38.5,52.0,43.9,36.4,98,76,42,30.36,30.21,6,2,10,0.00
2014-7-24,66.7,51.7,40.8,54.3,46.3,39.2,97,83,56,30.27,30.15,4,1,5,0.00
2014-7-25,68.7,53.8,39.7,54.3,46.8,38.4,97,80,43,30.33,30.21,13,4,20,0.00
2014-7-26,66.0,57.1,48.6,58.3,54.4,47.2,98,91,69,30.36,30.24,10,3,14,0.99
2014-7-27,71.4,57.1,46.4,51.1,43.6,38.1,98,64,35,30.39,30.24,9,6,13,0.00
2014-7-28,70.9,57.9,48.2,43.5,40.8,38.1,77,55,34,30.27,30.15,13,8,24,0.00
2014-7-29,72.5,58.9,43.3,42.3,39.6,36.3,86,51,32,30.24,30.09,16,8,25,0.00
2014-7-30,76.3,62.7,47.5,43.4,38.0,34.2,70,41,31,30.24,30.09,18,9,30,0.00
2014-7-31,77.9,62.6,45.9,40.6,28.3,-18.6,75,36,2,30.15,29.95,19,7,28,0.00
2014-8-1,69.1,59.3,47.5,38.0,30.0,23.5,44,33,25,30.12,29.80,21,10,31,0.00
2014-8-2,70.9,52.6,42.6,36.9,30.1,26.6,61,43,23,30.48,30.12,12,6,20,0.00
2014-8-3,69.8,51.4,38.7,43.4,37.6,29.9,81,61,37,30.60,30.48,8,2,14,0.00
2014-8-4,75.2,51.9,36.9,48.8,41.3,33.4,94,71,35,30.60,30.45,5,1,8,0.00
2014-8-5,77.7,56.9,44.2,48.8,43.1,35.4,97,66,28,30.54,30.45,7,2,12,0.00
2014-8-6,73.4,54.5,38.1,45.9,38.0,29.8,92,60,24,30.57,30.39,10,4,15,0.00
2014-8-7,75.0,56.7,42.6,43.1,37.0,30.9,77,50,31,30.51,30.39,11,4,16,0.00
2014-8-8,74.7,52.9,37.4,48.4,41.9,33.9,93,70,35,30.54,30.45,7,2,10,0.00
2014-8-9,76.1,55.0,40.6,49.8,41.7,33.3,98,67,28,30.51,30.33,11,3,17,0.00
2014-8-10,71.6,58.9,44.4,38.3,33.4,27.8,71,40,23,30.36,30.15,15,7,23,0.00
2014-8-11,72.3,51.7,39.4,38.7,33.3,28.7,79,52,24,30.42,30.24,11,3,19,0.00
2014-8-12,68.9,51.3,39.6,43.5,37.5,30.8,78,61,39,30.48,30.39,13,3,20,0.00
2014-8-13,62.6,52.3,42.6,47.9,42.5,38.7,92,71,45,30.57,30.45,6,2,10,0.00
2014-8-14,73.6,51.5,35.1,45.8,38.8,32.1,95,67,32,30.63,30.51,6,2,11,0.00
2014-8-15,74.5,55.1,43.5,50.4,44.6,40.5,94,71,36,30.54,30.33,9,3,20,0.00
2014-8-16,67.3,54.5,44.8,55.8,48.8,42.4,98,83,49,30.36,30.09,8,2,12,0.25
2014-8-17,70.9,60.5,55.4,57.5,46.6,35.6,98,66,33,30.07,29.80,13,7,22,0.37
2014-8-18,63.3,56.4,50.9,55.9,47.7,41.8,95,73,53,29.89,29.71,13,8,20,0.04
2014-8-19,72.5,58.9,53.4,53.3,49.1,43.2,96,72,40,30.24,29.92,18,6,34,0.16
2014-8-20,70.9,58.0,50.2,46.0,42.5,38.4,73,57,39,30.39,30.21,11,4,17,0.00
2014-8-21,66.0,55.2,48.4,54.9,49.1,43.6,94,80,56,30.48,30.36,6,2,11,0.09
2014-8-22,75.2,63.1,52.0,54.1,49.0,45.2,95,63,38,30.51,30.39,9,4,16,0.00
2014-8-23,59.4,50.8,46.8,54.8,48.8,45.1,96,93,85,30.51,30.45,3,0,5,0.00
2014-8-24,71.1,58.4,51.8,54.2,49.4,47.4,85,72,55,30.48,30.39,5,2,8,0.00
2014-8-25,78.1,57.9,43.5,55.0,48.4,41.6,96,75,35,30.39,30.21,6,2,11,0.00
2014-8-26,65.7,56.8,49.6,56.2,52.6,48.0,97,87,62,30.30,30.21,10,3,17,0.16
2014-8-27,68.0,58.8,55.0,57.0,54.1,47.9,98,85,53,30.36,30.24,13,6,24,1.07
2014-8-28,70.2,58.1,50.4,58.4,49.2,41.6,94,74,42,30.45,30.30,12,4,24,0.04
2014-8-29,67.5,55.0,45.1,49.1,45.3,43.1,96,72,47,30.42,30.30,10,3,17,0.00
2014-8-30,71.1,59.5,54.1,52.5,47.1,41.3,79,64,51,30.33,30.24,9,4,15,0.00
2014-8-31,78.8,63.6,54.5,51.6,49.1,44.4,84,62,35,30.48,30.12,6,2,13,0.00
2014-9-1,79.3,60.3,43.9,54.3,44.9,38.8,96,63,31,30.18,29.98,12,4,19,0.00
2014-9-2,71.4,60.2,53.4,54.8,41.9,31.8,90,53,33,30.01,29.83,12,6,26,0.09
2014-9-3,70.5,57.5,49.6,41.2,34.3,28.6,72,43,27,30.07,29.92,11,6,27,0.00
2014-9-4,70.2,55.4,44.6,40.8,37.1,33.4,70,52,33,30.15,30.03,12,4,21,0.00
2014-9-5,67.6,56.3,49.1,46.2,41.5,37.2,77,59,35,30.33,30.15,14,3,24,0.00
2014-9-6,70.0,56.9,48.6,53.4,49.0,43.9,92,77,46,30.51,30.33,10,3,24,0.08
2014-9-7,71.2,58.6,50.0,56.1,50.0,44.4,97,76,42,30.51,30.39,10,3,20,0.13
2014-9-8,79.3,59.3,46.0,54.6,49.0,44.4,96,73,36,30.48,30.27,10,3,17,0.00
2014-9-9,83.3,62.6,45.7,56.7,48.1,43.8,96,66,30,30.27,29.98,11,3,17,0.00
2014-9-10,78.3,64.2,52.9,58.2,47.5,38.4,95,60,30,30.07,29.80,17,7,26,0.57
2014-9-11,79.3,65.1,52.9,45.2,42.7,39.5,70,47,30,30.18,30.03,12,8,19,0.00
2014-9-12,74.7,60.0,49.5,53.2,47.8,40.4,89,66,42,30.36,30.21,9,3,15,0.00
2014-9-13,82.6,63.6,53.4,55.3,52.3,47.6,92,70,36,30.39,30.24,8,2,15,0.00
2014-9-14,84.9,64.7,50.2,56.3,47.9,35.3,98,63,24,30.27,30.07,12,4,20,0.00
2014-9-15,83.3,64.6,51.3,55.5,50.3,40.2,94,65,27,30.18,30.03,6,2,14,0.00
2014-9-16,84.6,66.3,54.3,56.8,47.8,35.8,94,59,20,30.09,29.80,17,6,35,0.00
2014-9-17,77.5,64.6,55.8,44.0,37.7,24.7,63,40,16,30.07,29.92,15,9,24,0.00
2014-9-18,81.9,61.4,51.3,36.8,24.0,-20.3,50,34,2,30.24,30.03,13,7,18,0.00
2014-9-19,76.6,56.4,41.0,41.2,35.7,31.0,84,50,22,30.27,30.15,7,2,12,0.00
2014-9-20,78.4,57.2,39.7,45.4,39.7,33.1,82,56,28,30.42,30.21,11,3,17,0.00
2014-9-21,77.2,60.2,47.7,50.1,46.4,42.3,92,64,36,30.48,30.36,10,4,15,0.00
2014-9-22,79.9,60.6,47.5,53.5,46.3,41.3,94,64,30,30.54,30.39,8,3,17,0.00
2014-9-23,82.2,59.9,42.6,53.5,46.7,39.2,90,67,27,30.48,30.30,9,3,16,0.00
2014-9-24,88.2,64.4,46.6,57.0,48.6,43.5,95,64,24,30.36,30.09,9,2,14,0.00
2014-9-25,77.7,64.4,56.7,63.7,55.5,50.3,95,74,45,30.07,29.89,14,4,26,0.80
2014-9-26,82.0,65.1,54.1,56.6,50.5,40.2,95,65,26,30.15,30.03,6,3,11,0.00
2014-9-27,79.9,64.2,56.3,53.9,50.2,44.3,83,63,32,30.27,30.15,9,3,13,0.00
2014-9-28,85.5,64.1,46.9,53.9,45.8,31.6,93,59,16,30.27,30.09,9,2,13,0.00
2014-9-29,91.0,71.7,50.5,49.7,42.4,25.9,87,43,10,30.15,30.01,16,6,25,0.00
2014-9-30,92.3,75.3,57.6,52.5,45.3,37.7,73,39,18,30.12,29.92,17,6,28,0.00
2014-10-1,82.8,69.8,52.7,42.2,19.4,-19.9,46,22,2,30.30,29.92,12,6,20,0.00
2014-10-2,80.2,61.7,44.2,43.3,37.5,32.1,76,45,20,30.30,30.12,9,3,15,0.00
2014-10-3,82.8,64.4,49.1,54.7,47.4,37.8,81,56,30,30.24,30.12,10,4,20,0.00
2014-10-4,90.7,68.2,54.3,58.8,53.4,44.2,96,66,26,30.24,30.03,10,3,16,0.00
2014-10-5,96.3,72.8,50.9,55.3,28.1,-16.3,90,40,2,30.15,30.03,14,4,20,0.00
2014-10-6,98.6,72.5,56.5,61.8,52.5,39.4,87,55,20,30.18,29.95,6,2,10,0.00
2014-10-7,95.2,76.1,61.9,60.0,49.7,43.9,86,43,20,30.07,29.83,17,7,29,0.00
2014-10-8,74.5,64.1,58.3,59.1,54.6,51.0,87,72,50,30.27,30.07,11,4,19,0.00
2014-10-9,83.1,65.6,55.0,56.9,51.6,46.4,91,65,31,30.33,30.15,8,3,14,0.00
2014-10-10,92.3,66.3,49.5,55.8,49.1,37.7,93,61,18,30.24,30.01,8,2,12,0.00
2014-10-11,95.9,72.3,54.9,59.1,45.6,-12.0,92,53,2,30.15,30.01,7,3,14,0.00
2014-10-12,96.4,71.8,51.6,58.6,46.0,-10.2,92,55,2,30.15,29.95,8,2,15,0.00
2014-10-13,86.2,69.0,57.2,62.1,54.7,47.2,95,65,32,30.01,29.74,22,4,36,0.58
2014-10-14,72.1,61.6,54.5,59.8,44.8,18.6,97,62,14,30.01,29.86,17,6,26,0.58
2014-10-15,71.8,57.1,47.7,47.8,43.1,38.5,91,63,35,30.12,29.92,13,6,24,0.21
2014-10-16,82.4,61.5,43.9,51.7,30.5,-20.3,92,50,2,30.21,30.03,12,4,24,0.00
2014-10-17,77.9,61.1,48.9,50.4,46.8,44.0,89,62,37,30.45,30.21,14,4,22,0.00
2014-10-18,80.4,63.6,53.4,53.9,47.9,42.3,90,61,31,30.51,30.33,8,3,15,0.00
2014-10-19,92.3,66.7,48.6,53.9,46.1,12.0,93,56,6,30.45,30.24,5,2,11,0.00
2014-10-20,73.0,63.3,53.2,58.4,52.9,49.4,89,71,45,30.54,30.27,13,5,22,0.00
2014-10-21,71.8,63.2,58.1,56.4,49.4,43.2,90,64,40,30.57,30.45,11,5,19,0.00
2014-10-22,86.7,66.2,48.0,52.6,48.1,42.5,90,57,27,30.51,30.18,5,2,12,0.00
2014-10-23,99.7,73.3,54.5,56.6,51.8,48.2,89,53,19,30.24,30.03,7,2,13,0.00
2014-10-24,95.9,74.9,60.1,62.0,56.8,53.5,85,57,29,30.27,30.01,9,2,24,0.08
2014-10-25,105.1,78.2,60.6,64.6,50.8,-6.9,94,54,2,30.12,29.98,10,3,14,0.08
2014-10-26,107.6,80.3,62.1,65.6,47.0,-3.2,94,55,2,30.15,29.80,16,6,29,0.00
2014-10-27,102.0,80.2,65.7,63.5,46.2,-8.8,86,46,2,30.07,29.77,18,6,29,0.00
2014-10-28,91.8,74.7,58.1,51.7,14.7,-20.1,72,23,2,30.07,29.92,17,7,25,0.00
2014-10-29,93.4,71.6,54.3,55.4,38.6,-8.9,72,37,2,30.15,30.03,10,4,19,0.00
2014-10-30,98.1,74.1,55.2,57.7,37.3,-9.6,92,47,2,30.12,29.92,13,4,19,0.00
2014-10-31,104.9,79.1,55.2,55.8,33.2,-10.4,82,38,2,30.07,29.80,14,3,27,0.00
2014-11-1,99.3,82.2,68.2,59.2,54.1,42.9,67,40,20,30.01,29.62,24,10,36,0.00
2014-11-2,88.5,69.0,55.6,42.4,16.7,-20.3,47,23,2,30.30,30.01,11,5,20,0.00
2014-11-3,85.3,65.1,50.2,49.4,44.1,35.5,71,49,25,30.36,30.21,12,4,20,0.00
2014-11-4,89.2,69.4,54.5,56.6,52.5,49.3,89,59,29,30.36,30.15,10,3,15,0.00
2014-11-5,93.9,70.2,59.0,60.9,55.1,47.1,89,64,23,30.18,29.95,14,4,25,0.17
2014-11-6,90.3,68.6,55.6,58.3,55.2,51.4,94,67,29,30.18,29.95,13,4,23,0.00
2014-11-7,87.3,68.8,56.3,57.7,54.5,51.9,91,64,33,30.33,30.15,11,4,20,0.00
2014-11-8,95.5,70.5,54.1,59.8,53.9,16.4,92,63,6,30.30,30.12,7,2,12,0.00
2014-11-9,97.5,73.7,57.2,61.6,58.1,54.2,92,64,26,30.21,30.09,14,4,18,0.00
2014-11-10,95.0,74.4,66.2,61.1,58.4,56.1,83,60,30,30.24,30.03,16,5,27,0.00
2014-11-11,80.6,68.7,63.7,60.9,55.4,49.0,83,65,36,30.27,30.15,12,6,23,0.00
2014-11-12,86.2,70.5,61.9,57.4,54.5,50.8,82,60,33,30.24,30.03,12,6,20,0.00
2014-11-13,95.4,73.2,57.4,62.8,57.1,52.7,90,61,29,30.18,30.03,9,3,13,0.00
2014-11-14,105.3,84.8,61.9,65.9,40.7,-5.9,93,42,2,30.07,29.86,13,5,23,0.00
2014-11-15,98.1,76.9,66.2,60.4,55.6,46.6,74,50,28,30.03,29.86,14,6,27,0.00
2014-11-16,88.7,73.0,62.2,62.8,51.7,41.2,83,53,22,30.01,29.74,22,8,36,0.04
2014-11-17,95.9,73.0,57.0,52.5,41.6,-7.2,67,40,2,30.09,29.92,12,5,20,0.00
2014-11-18,97.5,73.9,61.7,59.6,52.7,42.1,78,52,16,30.27,30.03,12,4,22,0.00
2014-11-19,87.1,71.2,59.9,63.2,57.7,53.2,89,65,39,30.27,30.12,15,5,24,0.00
2014-11-20,65.8,63.5,62.1,62.5,61.0,59.9,95,91,89,30.12,30.09,3,1,6,0.00
2014-12-13,108.3,65.2,60.1,54.4,52.0,27.2,80,71,6,30.12,29.95,8,1,13,3.99
2014-12-14,92.5,72.6,57.0,59.5,52.9,42.4,90,56,20,30.12,29.92,6,2,11,0.00
2014-12-15,87.1,69.4,60.8,59.3,56.2,54.4,85,65,36,30.03,29.92,8,2,15,0.00
2014-12-16,93.2,70.4,59.7,63.7,56.8,51.9,86,64,34,29.95,29.62,11,2,23,0.00
2014-12-17,88.9,76.8,67.1,60.9,55.1,49.7,68,48,29,30.01,29.65,12,7,25,0.00
2014-12-18,89.1,77.0,66.2,62.9,58.2,43.8,81,55,31,30.01,29.77,10,4,13,0.00
2014-12-19,86.5,75.2,61.5,55.0,48.3,37.3,57,40,24,30.18,29.86,13,6,23,0.00
2014-12-20,89.1,72.7,63.5,57.7,53.0,50.2,71,52,33,30.21,30.07,10,4,17,0.00
2014-12-21,97.7,76.0,59.2,62.8,57.2,54.0,85,57,26,30.18,30.03,9,3,17,0.00
2014-12-22,103.3,85.1,64.2,65.4,57.4,46.3,89,47,17,30.18,30.01,11,5,16,0.00
2014-12-23,91.0,75.3,67.6,70.0,64.7,59.3,90,72,40,30.15,29.98,11,2,20,0.12
2014-12-24,100.9,77.9,69.8,71.9,66.3,60.6,93,72,30,30.12,29.98,13,4,23,0.00
2014-12-25,105.6,78.6,68.7,71.3,66.3,59.9,95,71,26,30.12,29.80,13,3,27,1.00
2014-12-26,100.4,77.6,66.7,70.9,63.3,33.7,96,68,10,30.24,29.83,15,6,26,0.16
2014-12-27,72.3,68.3,65.1,62.2,56.4,53.2,89,66,52,30.27,30.18,10,6,15,0.00
2014-12-28,76.6,68.5,64.8,65.7,62.4,57.1,92,82,53,30.24,30.07,7,4,13,0.08
2014-12-29,93.4,77.0,65.7,68.0,60.8,52.8,96,63,29,30.07,29.74,10,3,18,0.05
2014-12-30,98.8,82.7,67.3,62.8,34.7,-16.1,84,33,2,30.01,29.74,20,7,32,0.00
2014-12-31,88.7,74.7,63.1,66.0,58.6,40.8,86,59,36,30.12,30.01,11,4,22,0.00
2015-1-1,104.0,82.0,64.0,72.0,63.7,57.8,91,60,24,30.09,29.92,6,3,13,0.00
2015-1-2,100.4,82.4,69.6,72.9,64.1,55.3,95,59,28,30.21,30.03,12,3,17,1.12